sensor_id;sensor_type;location;lat;lon;timestamp;temperature;humidity
2873;DHT22;1444;49.166;7.312;2022-11-20T00:00:07;8.70;99.90
2873;DHT22;1444;49.166;7.312;2022-11-20T00:02:34;8.80;99.90
2873;DHT22;1444;49.166;7.312;2022-11-20T00:05:00;8.70;99.90
2873;DHT22;1444;49.166;7.312;2022-11-20T00:07:27;8.70;99.90
2873;DHT22;1444;49.166;7.312;2022-11-20T00:09:55;8.80;99.90
2873;DHT22;1444;49.166;7.312;2022-11-20T00:12:22;8.80;99.90
2873;DHT22;1444;49.166;7.312;2022-11-20T00:14:49;8.70;99.90
2873;DHT22;1444;49.166;7.312;2022-11-20T00:17:15;8.80;99.90
2873;DHT22;1444;49.166;7.312;2022-11-20T00:19:42;8.80;99.90
2873;DHT22;1444;49.166;7.312;2022-11-20T00:22:09;8.70;99.90
2873;DHT22;1444;49.166;7.312;2022-11-20T00:24:35;8.90;99.90
2873;DHT22;1444;49.166;7.312;2022-11-20T00:27:03;7.40;99.90
2873;DHT22;1444;49.166;7.312;2022-11-20T00:29:30;8.80;99.90
2873;DHT22;1444;49.166;7.312;2022-11-20T00:31:57;8.80;99.90
2873;DHT22;1444;49.166;7.312;2022-11-20T00:34:23;8.90;99.90
2873;DHT22;1444;49.166;7.312;2022-11-20T00:36:50;8.90;99.90
2873;DHT22;1444;49.166;7.312;2022-11-20T00:39:17;8.90;99.90
2873;DHT22;1444;49.166;7.312;2022-11-20T00:41:43;8.80;99.90
2873;DHT22;1444;49.166;7.312;2022-11-20T00:44:11;8.90;99.90
2873;DHT22;1444;49.166;7.312;2022-11-20T00:51:32;9.00;99.90
2873;DHT22;1444;49.166;7.312;2022-11-20T00:53:59;9.90;99.90
2873;DHT22;1444;49.166;7.312;2022-11-20T00:56:27;9.00;99.90
2873;DHT22;1444;49.166;7.312;2022-11-20T00:58:54;9.00;99.90
2873;DHT22;1444;49.166;7.312;2022-11-20T01:01:24;8.90;99.90
2873;DHT22;1444;49.166;7.312;2022-11-20T01:03:52;8.90;99.90
2873;DHT22;1444;49.166;7.312;2022-11-20T01:06:20;8.80;99.90
2873;DHT22;1444;49.166;7.312;2022-11-20T01:08:48;8.80;99.90
2873;DHT22;1444;49.166;7.312;2022-11-20T01:11:16;8.80;99.90
2873;DHT22;1444;49.166;7.312;2022-11-20T01:16:13;8.80;99.90
2873;DHT22;1444;49.166;7.312;2022-11-20T01:23:38;8.70;99.90
2873;DHT22;1444;49.166;7.312;2022-11-20T01:28:33;8.70;99.90
2873;DHT22;1444;49.166;7.312;2022-11-20T01:31:00;8.60;99.90
2873;DHT22;1444;49.166;7.312;2022-11-20T01:33:27;8.70;99.90
2873;DHT22;1444;49.166;7.312;2022-11-20T01:36:03;8.70;99.90
2873;DHT22;1444;49.166;7.312;2022-11-20T01:38:30;8.80;99.90
2873;DHT22;1444;49.166;7.312;2022-11-20T01:40:57;8.80;99.90
2873;DHT22;1444;49.166;7.312;2022-11-20T01:43:24;8.90;99.90
2873;DHT22;1444;49.166;7.312;2022-11-20T01:46:03;8.80;99.90
2873;DHT22;1444;49.166;7.312;2022-11-20T01:48:35;8.90;99.90
2873;DHT22;1444;49.166;7.312;2022-11-20T01:51:04;8.80;99.90
2873;DHT22;1444;49.166;7.312;2022-11-20T01:53:34;8.90;99.90
2873;DHT22;1444;49.166;7.312;2022-11-20T01:56:05;8.90;99.90
2873;DHT22;1444;49.166;7.312;2022-11-20T02:06:04;8.90;99.90
2873;DHT22;1444;49.166;7.312;2022-11-20T02:08:34;8.90;99.90
2873;DHT22;1444;49.166;7.312;2022-11-20T02:11:01;8.90;99.90
2873;DHT22;1444;49.166;7.312;2022-11-20T02:13:28;8.90;99.90
2873;DHT22;1444;49.166;7.312;2022-11-20T02:18:39;8.90;99.90
2873;DHT22;1444;49.166;7.312;2022-11-20T02:23:39;8.90;99.90
2873;DHT22;1444;49.166;7.312;2022-11-20T02:31:03;8.90;99.90
2873;DHT22;1444;49.166;7.312;2022-11-20T02:33:30;8.90;99.90
2873;DHT22;1444;49.166;7.312;2022-11-20T02:35:56;9.00;99.90
2873;DHT22;1444;49.166;7.312;2022-11-20T02:45:45;8.90;99.90
2873;DHT22;1444;49.166;7.312;2022-11-20T02:48:12;9.00;99.90
2873;DHT22;1444;49.166;7.312;2022-11-20T02:53:06;9.00;99.90
2873;DHT22;1444;49.166;7.312;2022-11-20T02:55:33;8.90;99.90
2873;DHT22;1444;49.166;7.312;2022-11-20T02:58:00;9.00;99.90
2873;DHT22;1444;49.166;7.312;2022-11-20T03:00:28;9.00;99.90
2873;DHT22;1444;49.166;7.312;2022-11-20T03:05:22;8.90;99.90
2873;DHT22;1444;49.166;7.312;2022-11-20T03:07:48;8.90;99.90
2873;DHT22;1444;49.166;7.312;2022-11-20T03:10:15;8.90;99.90
2873;DHT22;1444;49.166;7.312;2022-11-20T03:12:42;8.90;99.90
2873;DHT22;1444;49.166;7.312;2022-11-20T03:15:09;8.90;99.90
2873;DHT22;1444;49.166;7.312;2022-11-20T03:17:38;8.90;99.90
2873;DHT22;1444;49.166;7.312;2022-11-20T03:20:05;8.90;99.90
2873;DHT22;1444;49.166;7.312;2022-11-20T03:22:32;9.00;99.90
2873;DHT22;1444;49.166;7.312;2022-11-20T03:24:59;9.00;99.90
2873;DHT22;1444;49.166;7.312;2022-11-20T03:27:26;9.00;99.90
2873;DHT22;1444;49.166;7.312;2022-11-20T03:39:42;9.00;99.90
2873;DHT22;1444;49.166;7.312;2022-11-20T03:42:09;8.90;99.90
2873;DHT22;1444;49.166;7.312;2022-11-20T03:44:57;8.90;99.90
2873;DHT22;1444;49.166;7.312;2022-11-20T03:47:23;8.90;99.90
2873;DHT22;1444;49.166;7.312;2022-11-20T03:49:51;8.90;99.90
2873;DHT22;1444;49.166;7.312;2022-11-20T03:52:19;8.90;99.90
2873;DHT22;1444;49.166;7.312;2022-11-20T03:54:46;11.40;99.90
2873;DHT22;1444;49.166;7.312;2022-11-20T04:02:06;8.90;99.90
2873;DHT22;1444;49.166;7.312;2022-11-20T04:04:33;8.90;99.90
2873;DHT22;1444;49.166;7.312;2022-11-20T04:07:02;10.40;99.90
2873;DHT22;1444;49.166;7.312;2022-11-20T04:09:28;8.90;99.90
2873;DHT22;1444;49.166;7.312;2022-11-20T04:11:55;8.90;99.90
2873;DHT22;1444;49.166;7.312;2022-11-20T04:16:49;8.80;99.90
2873;DHT22;1444;49.166;7.312;2022-11-20T04:19:16;8.80;99.90
2873;DHT22;1444;49.166;7.312;2022-11-20T04:21:44;8.80;99.90
2873;DHT22;1444;49.166;7.312;2022-11-20T04:24:12;8.90;99.90
2873;DHT22;1444;49.166;7.312;2022-11-20T04:26:39;8.80;99.90
2873;DHT22;1444;49.166;7.312;2022-11-20T04:29:06;8.90;99.90
2873;DHT22;1444;49.166;7.312;2022-11-20T04:31:34;8.80;99.90
2873;DHT22;1444;49.166;7.312;2022-11-20T04:36:30;8.80;99.90
2873;DHT22;1444;49.166;7.312;2022-11-20T04:38:58;8.80;99.90
2873;DHT22;1444;49.166;7.312;2022-11-20T04:41:29;8.80;99.90
2873;DHT22;1444;49.166;7.312;2022-11-20T04:43:57;8.80;99.90
2873;DHT22;1444;49.166;7.312;2022-11-20T04:48:55;8.80;99.90
2873;DHT22;1444;49.166;7.312;2022-11-20T04:51:22;8.70;99.90
2873;DHT22;1444;49.166;7.312;2022-11-20T04:53:49;8.80;99.90
2873;DHT22;1444;49.166;7.312;2022-11-20T04:58:44;8.80;99.90
2873;DHT22;1444;49.166;7.312;2022-11-20T05:01:12;8.80;99.90
2873;DHT22;1444;49.166;7.312;2022-11-20T05:06:07;8.80;99.90
2873;DHT22;1444;49.166;7.312;2022-11-20T05:08:34;8.80;99.90
2873;DHT22;1444;49.166;7.312;2022-11-20T05:11:02;8.80;99.90
2873;DHT22;1444;49.166;7.312;2022-11-20T05:13:29;8.80;99.90
2873;DHT22;1444;49.166;7.312;2022-11-20T05:16:02;8.80;99.90
2873;DHT22;1444;49.166;7.312;2022-11-20T05:18:29;8.90;99.90
2873;DHT22;1444;49.166;7.312;2022-11-20T05:20:56;8.80;99.90
2873;DHT22;1444;49.166;7.312;2022-11-20T05:23:23;8.80;99.90
2873;DHT22;1444;49.166;7.312;2022-11-20T05:25:52;8.70;99.90
2873;DHT22;1444;49.166;7.312;2022-11-20T05:28:19;8.80;99.90
2873;DHT22;1444;49.166;7.312;2022-11-20T05:30:45;8.80;99.90
2873;DHT22;1444;49.166;7.312;2022-11-20T05:33:14;8.90;99.90
2873;DHT22;1444;49.166;7.312;2022-11-20T05:35:40;8.90;99.90
2873;DHT22;1444;49.166;7.312;2022-11-20T05:38:07;8.80;99.90
2873;DHT22;1444;49.166;7.312;2022-11-20T05:45:28;7.30;99.90
2873;DHT22;1444;49.166;7.312;2022-11-20T05:47:58;8.80;99.90
2873;DHT22;1444;49.166;7.312;2022-11-20T05:52:53;8.90;99.90
2873;DHT22;1444;49.166;7.312;2022-11-20T05:55:20;8.90;99.90
2873;DHT22;1444;49.166;7.312;2022-11-20T05:57:47;8.90;99.90
2873;DHT22;1444;49.166;7.312;2022-11-20T06:00:15;8.80;99.90
2873;DHT22;1444;49.166;7.312;2022-11-20T06:05:08;8.80;99.90
2873;DHT22;1444;49.166;7.312;2022-11-20T06:07:36;8.80;99.90
2873;DHT22;1444;49.166;7.312;2022-11-20T06:10:04;8.90;99.90
2873;DHT22;1444;49.166;7.312;2022-11-20T06:12:31;8.90;99.90
2873;DHT22;1444;49.166;7.312;2022-11-20T06:14:58;8.80;99.90
2873;DHT22;1444;49.166;7.312;2022-11-20T06:17:25;8.90;99.90
2873;DHT22;1444;49.166;7.312;2022-11-20T06:22:19;8.90;99.90
2873;DHT22;1444;49.166;7.312;2022-11-20T06:27:14;8.90;99.90
2873;DHT22;1444;49.166;7.312;2022-11-20T06:29:41;8.90;99.90
2873;DHT22;1444;49.166;7.312;2022-11-20T06:32:07;8.90;99.90
2873;DHT22;1444;49.166;7.312;2022-11-20T06:34:34;8.90;99.90
2873;DHT22;1444;49.166;7.312;2022-11-20T06:39:28;8.20;99.90
2873;DHT22;1444;49.166;7.312;2022-11-20T06:41:56;9.10;99.90
2873;DHT22;1444;49.166;7.312;2022-11-20T06:44:22;9.00;99.90
2873;DHT22;1444;49.166;7.312;2022-11-20T06:46:49;9.00;99.90
2873;DHT22;1444;49.166;7.312;2022-11-20T06:51:43;9.10;99.90
2873;DHT22;1444;49.166;7.312;2022-11-20T06:54:10;9.10;99.90
2873;DHT22;1444;49.166;7.312;2022-11-20T06:56:36;9.00;99.90
2873;DHT22;1444;49.166;7.312;2022-11-20T06:59:05;9.00;99.90
2873;DHT22;1444;49.166;7.312;2022-11-20T07:01:32;9.10;99.90
2873;DHT22;1444;49.166;7.312;2022-11-20T07:03:59;9.10;99.90
2873;DHT22;1444;49.166;7.312;2022-11-20T07:06:26;9.10;99.90
2873;DHT22;1444;49.166;7.312;2022-11-20T07:08:52;9.10;99.90
2873;DHT22;1444;49.166;7.312;2022-11-20T07:11:19;9.10;99.90
2873;DHT22;1444;49.166;7.312;2022-11-20T07:13:46;9.20;99.90
2873;DHT22;1444;49.166;7.312;2022-11-20T07:16:14;9.20;99.90
2873;DHT22;1444;49.166;7.312;2022-11-20T07:18:40;9.20;99.90
2873;DHT22;1444;49.166;7.312;2022-11-20T07:26:03;9.20;99.90
2873;DHT22;1444;49.166;7.312;2022-11-20T07:28:30;9.20;99.90
2873;DHT22;1444;49.166;7.312;2022-11-20T07:30:57;9.20;99.90
2873;DHT22;1444;49.166;7.312;2022-11-20T07:33:25;9.20;99.90
2873;DHT22;1444;49.166;7.312;2022-11-20T07:35:51;9.30;99.90
2873;DHT22;1444;49.166;7.312;2022-11-20T07:38:18;9.20;99.90
2873;DHT22;1444;49.166;7.312;2022-11-20T07:43:12;9.20;99.90
2873;DHT22;1444;49.166;7.312;2022-11-20T07:48:06;9.30;99.90
2873;DHT22;1444;49.166;7.312;2022-11-20T07:50:34;9.20;99.90
2873;DHT22;1444;49.166;7.312;2022-11-20T07:53:02;9.20;99.90
2873;DHT22;1444;49.166;7.312;2022-11-20T07:55:29;9.20;99.90
2873;DHT22;1444;49.166;7.312;2022-11-20T08:00:24;9.20;99.90
2873;DHT22;1444;49.166;7.312;2022-11-20T08:05:18;9.20;99.90
2873;DHT22;1444;49.166;7.312;2022-11-20T08:18:01;9.20;99.90
2873;DHT22;1444;49.166;7.312;2022-11-20T08:20:28;9.10;99.90
2873;DHT22;1444;49.166;7.312;2022-11-20T08:22:59;9.10;99.90
2873;DHT22;1444;49.166;7.312;2022-11-20T08:25:27;9.10;99.90
2873;DHT22;1444;49.166;7.312;2022-11-20T08:27:54;9.10;99.90
2873;DHT22;1444;49.166;7.312;2022-11-20T08:30:22;9.00;99.90
2873;DHT22;1444;49.166;7.312;2022-11-20T08:32:49;9.00;99.90
2873;DHT22;1444;49.166;7.312;2022-11-20T08:35:16;9.00;99.90
2873;DHT22;1444;49.166;7.312;2022-11-20T08:37:46;9.00;99.90
2873;DHT22;1444;49.166;7.312;2022-11-20T08:42:46;9.10;99.90
2873;DHT22;1444;49.166;7.312;2022-11-20T08:45:14;9.00;99.90
2873;DHT22;1444;49.166;7.312;2022-11-20T08:47:40;9.00;99.90
2873;DHT22;1444;49.166;7.312;2022-11-20T08:50:08;9.10;99.90
2873;DHT22;1444;49.166;7.312;2022-11-20T08:57:32;9.30;99.90
2873;DHT22;1444;49.166;7.312;2022-11-20T08:59:59;9.40;99.90
2873;DHT22;1444;49.166;7.312;2022-11-20T09:04:53;9.40;99.90
2873;DHT22;1444;49.166;7.312;2022-11-20T09:07:20;9.40;99.90
2873;DHT22;1444;49.166;7.312;2022-11-20T09:09:47;9.50;99.90
2873;DHT22;1444;49.166;7.312;2022-11-20T09:12:13;9.60;99.90
2873;DHT22;1444;49.166;7.312;2022-11-20T09:14:42;9.50;99.90
2873;DHT22;1444;49.166;7.312;2022-11-20T09:17:09;9.60;99.90
2873;DHT22;1444;49.166;7.312;2022-11-20T09:24:33;9.60;99.90
2873;DHT22;1444;49.166;7.312;2022-11-20T09:27:04;9.70;99.90
2873;DHT22;1444;49.166;7.312;2022-11-20T09:29:31;9.70;99.90
2873;DHT22;1444;49.166;7.312;2022-11-20T09:31:59;9.70;99.90
2873;DHT22;1444;49.166;7.312;2022-11-20T09:34:25;9.80;99.90
2873;DHT22;1444;49.166;7.312;2022-11-20T09:42:08;9.60;99.90
2873;DHT22;1444;49.166;7.312;2022-11-20T09:44:49;9.60;99.90
2873;DHT22;1444;49.166;7.312;2022-11-20T09:47:26;9.60;99.90
2873;DHT22;1444;49.166;7.312;2022-11-20T09:50:07;9.70;99.90
2873;DHT22;1444;49.166;7.312;2022-11-20T09:55:10;9.80;99.90
2873;DHT22;1444;49.166;7.312;2022-11-20T09:57:40;9.80;99.90
2873;DHT22;1444;49.166;7.312;2022-11-20T10:00:10;9.80;99.90
2873;DHT22;1444;49.166;7.312;2022-11-20T10:02:43;9.70;99.90
2873;DHT22;1444;49.166;7.312;2022-11-20T10:12:52;9.90;99.90
2873;DHT22;1444;49.166;7.312;2022-11-20T10:15:31;9.90;99.90
2873;DHT22;1444;49.166;7.312;2022-11-20T10:18:09;10.00;99.90
2873;DHT22;1444;49.166;7.312;2022-11-20T10:20:43;10.20;99.90
2873;DHT22;1444;49.166;7.312;2022-11-20T10:33:27;10.30;99.90
2873;DHT22;1444;49.166;7.312;2022-11-20T10:38:34;10.20;99.90
2873;DHT22;1444;49.166;7.312;2022-11-20T10:43:44;10.20;99.90
2873;DHT22;1444;49.166;7.312;2022-11-20T10:46:15;10.20;99.90
2873;DHT22;1444;49.166;7.312;2022-11-20T10:48:45;10.30;99.90
2873;DHT22;1444;49.166;7.312;2022-11-20T10:51:18;10.50;99.90
2873;DHT22;1444;49.166;7.312;2022-11-20T10:56:22;10.50;99.90
2873;DHT22;1444;49.166;7.312;2022-11-20T10:59:06;10.30;99.90
2873;DHT22;1444;49.166;7.312;2022-11-20T11:01:40;10.50;99.90
2873;DHT22;1444;49.166;7.312;2022-11-20T11:06:47;10.50;99.90
2873;DHT22;1444;49.166;7.312;2022-11-20T11:09:18;10.50;99.90
2873;DHT22;1444;49.166;7.312;2022-11-20T11:11:46;10.60;99.90
2873;DHT22;1444;49.166;7.312;2022-11-20T11:14:14;10.70;99.90
2873;DHT22;1444;49.166;7.312;2022-11-20T11:16:50;10.70;99.90
2873;DHT22;1444;49.166;7.312;2022-11-20T11:19:18;10.70;99.90
2873;DHT22;1444;49.166;7.312;2022-11-20T11:21:47;10.80;99.90
2873;DHT22;1444;49.166;7.312;2022-11-20T11:24:20;11.00;99.90
2873;DHT22;1444;49.166;7.312;2022-11-20T11:26:52;11.10;99.70
2873;DHT22;1444;49.166;7.312;2022-11-20T11:29:20;10.90;99.50
2873;DHT22;1444;49.166;7.312;2022-11-20T11:34:15;10.70;98.60
2873;DHT22;1444;49.166;7.312;2022-11-20T11:39:18;10.80;98.70
2873;DHT22;1444;49.166;7.312;2022-11-20T11:41:46;10.70;97.60
2873;DHT22;1444;49.166;7.312;2022-11-20T11:44:17;10.80;99.20
2873;DHT22;1444;49.166;7.312;2022-11-20T11:47:03;11.10;98.90
2873;DHT22;1444;49.166;7.312;2022-11-20T11:49:31;11.20;97.60
2873;DHT22;1444;49.166;7.312;2022-11-20T11:52:04;11.30;97.60
2873;DHT22;1444;49.166;7.312;2022-11-20T11:57:13;11.20;96.90
2873;DHT22;1444;49.166;7.312;2022-11-20T11:59:51;11.10;96.20
2873;DHT22;1444;49.166;7.312;2022-11-20T12:02:29;11.00;96.80
2873;DHT22;1444;49.166;7.312;2022-11-20T12:05:00;11.00;96.30
2873;DHT22;1444;49.166;7.312;2022-11-20T12:12:34;11.30;96.70
2873;DHT22;1444;49.166;7.312;2022-11-20T12:17:31;11.60;96.30
2873;DHT22;1444;49.166;7.312;2022-11-20T12:19:58;11.60;95.60
2873;DHT22;1444;49.166;7.312;2022-11-20T12:22:32;11.90;96.10
2873;DHT22;1444;49.166;7.312;2022-11-20T12:27:47;11.60;94.70
2873;DHT22;1444;49.166;7.312;2022-11-20T12:33:15;11.40;94.80
2873;DHT22;1444;49.166;7.312;2022-11-20T12:35:58;11.30;95.20
2873;DHT22;1444;49.166;7.312;2022-11-20T12:38:53;11.10;94.80
2873;DHT22;1444;49.166;7.312;2022-11-20T12:41:39;11.00;95.60
2873;DHT22;1444;49.166;7.312;2022-11-20T12:47:26;10.70;95.40
2873;DHT22;1444;49.166;7.312;2022-11-20T12:50:04;10.70;95.70
2873;DHT22;1444;49.166;7.312;2022-11-20T12:52:40;10.80;96.20
2873;DHT22;1444;49.166;7.312;2022-11-20T12:55:16;10.70;95.50
2873;DHT22;1444;49.166;7.312;2022-11-20T13:00:16;10.90;95.90
2873;DHT22;1444;49.166;7.312;2022-11-20T13:03:06;11.00;96.20
2873;DHT22;1444;49.166;7.312;2022-11-20T13:05:40;10.90;96.00
2873;DHT22;1444;49.166;7.312;2022-11-20T13:08:17;10.90;95.70
2873;DHT22;1444;49.166;7.312;2022-11-20T13:13:24;10.90;95.50
2873;DHT22;1444;49.166;7.312;2022-11-20T13:15:56;10.90;96.00
2873;DHT22;1444;49.166;7.312;2022-11-20T13:23:24;11.00;96.30
2873;DHT22;1444;49.166;7.312;2022-11-20T13:28:30;10.80;95.40
2873;DHT22;1444;49.166;7.312;2022-11-20T13:30:58;10.70;96.10
2873;DHT22;1444;49.166;7.312;2022-11-20T13:33:29;10.70;96.30
2873;DHT22;1444;49.166;7.312;2022-11-20T13:35:59;10.60;96.10
2873;DHT22;1444;49.166;7.312;2022-11-20T13:38:26;10.40;96.30
2873;DHT22;1444;49.166;7.312;2022-11-20T13:40:56;10.40;96.70
2873;DHT22;1444;49.166;7.312;2022-11-20T13:43:28;10.50;96.80
2873;DHT22;1444;49.166;7.312;2022-11-20T13:48:31;10.60;96.40
2873;DHT22;1444;49.166;7.312;2022-11-20T13:51:15;10.40;95.60
2873;DHT22;1444;49.166;7.312;2022-11-20T13:54:01;10.30;96.10
2873;DHT22;1444;49.166;7.312;2022-11-20T13:59:10;10.30;96.00
2873;DHT22;1444;49.166;7.312;2022-11-20T14:01:43;10.20;95.90
2873;DHT22;1444;49.166;7.312;2022-11-20T14:04:14;10.20;96.10
2873;DHT22;1444;49.166;7.312;2022-11-20T14:09:11;10.20;96.50
2873;DHT22;1444;49.166;7.312;2022-11-20T14:11:46;10.20;96.70
2873;DHT22;1444;49.166;7.312;2022-11-20T14:16:42;10.20;96.60
2873;DHT22;1444;49.166;7.312;2022-11-20T14:19:26;10.00;96.10
2873;DHT22;1444;49.166;7.312;2022-11-20T14:22:06;10.00;96.70
2873;DHT22;1444;49.166;7.312;2022-11-20T14:24:33;9.90;97.00
2873;DHT22;1444;49.166;7.312;2022-11-20T14:27:01;9.90;97.00
2873;DHT22;1444;49.166;7.312;2022-11-20T14:29:32;9.90;97.20
2873;DHT22;1444;49.166;7.312;2022-11-20T14:32:01;9.90;97.40
2873;DHT22;1444;49.166;7.312;2022-11-20T14:34:30;9.70;97.60
2873;DHT22;1444;49.166;7.312;2022-11-20T14:36:59;9.70;97.50
2873;DHT22;1444;49.166;7.312;2022-11-20T14:39:30;9.70;97.70
2873;DHT22;1444;49.166;7.312;2022-11-20T14:42:00;9.70;97.60
2873;DHT22;1444;49.166;7.312;2022-11-20T14:44:31;9.60;97.40
2873;DHT22;1444;49.166;7.312;2022-11-20T14:47:00;9.60;97.90
2873;DHT22;1444;49.166;7.312;2022-11-20T14:49:29;9.60;97.60
2873;DHT22;1444;49.166;7.312;2022-11-20T14:51:59;9.20;97.80
2873;DHT22;1444;49.166;7.312;2022-11-20T14:54:27;9.60;97.80
2873;DHT22;1444;49.166;7.312;2022-11-20T14:56:55;9.70;98.10
2873;DHT22;1444;49.166;7.312;2022-11-20T14:59:24;9.60;97.90
2873;DHT22;1444;49.166;7.312;2022-11-20T15:01:56;9.60;98.10
2873;DHT22;1444;49.166;7.312;2022-11-20T15:04:23;9.70;98.20
2873;DHT22;1444;49.166;7.312;2022-11-20T15:06:51;9.60;98.10
2873;DHT22;1444;49.166;7.312;2022-11-20T15:09:18;9.70;98.40
2873;DHT22;1444;49.166;7.312;2022-11-20T15:11:53;9.60;98.40
2873;DHT22;1444;49.166;7.312;2022-11-20T15:14:20;9.60;98.60
2873;DHT22;1444;49.166;7.312;2022-11-20T15:16:48;9.60;98.40
2873;DHT22;1444;49.166;7.312;2022-11-20T15:19:18;9.60;98.60
2873;DHT22;1444;49.166;7.312;2022-11-20T15:21:45;9.50;98.70
2873;DHT22;1444;49.166;7.312;2022-11-20T15:24:12;9.50;98.70
2873;DHT22;1444;49.166;7.312;2022-11-20T15:26:39;9.50;98.50
2873;DHT22;1444;49.166;7.312;2022-11-20T15:29:08;9.40;98.50
2873;DHT22;1444;49.166;7.312;2022-11-20T15:31:37;9.50;98.70
2873;DHT22;1444;49.166;7.312;2022-11-20T15:34:10;9.40;98.30
2873;DHT22;1444;49.166;7.312;2022-11-20T15:36:38;9.40;98.40
2873;DHT22;1444;49.166;7.312;2022-11-20T15:39:05;9.30;98.50
2873;DHT22;1444;49.166;7.312;2022-11-20T15:43:59;9.40;98.50
2873;DHT22;1444;49.166;7.312;2022-11-20T15:46:28;9.40;98.60
2873;DHT22;1444;49.166;7.312;2022-11-20T15:48:56;8.10;98.00
2873;DHT22;1444;49.166;7.312;2022-11-20T15:51:28;9.30;99.40
2873;DHT22;1444;49.166;7.312;2022-11-20T15:53:56;9.20;99.10
2873;DHT22;1444;49.166;7.312;2022-11-20T15:56:23;9.20;99.70
2873;DHT22;1444;49.166;7.312;2022-11-20T15:58:50;9.20;99.90
2873;DHT22;1444;49.166;7.312;2022-11-20T16:01:19;9.00;99.70
2873;DHT22;1444;49.166;7.312;2022-11-20T16:03:47;9.00;99.60
2873;DHT22;1444;49.166;7.312;2022-11-20T16:06:13;9.00;99.90
2873;DHT22;1444;49.166;7.312;2022-11-20T16:08:42;8.90;99.90
2873;DHT22;1444;49.166;7.312;2022-11-20T16:11:11;9.00;99.90
2873;DHT22;1444;49.166;7.312;2022-11-20T16:13:38;9.00;99.90
2873;DHT22;1444;49.166;7.312;2022-11-20T16:16:24;9.00;99.90
2873;DHT22;1444;49.166;7.312;2022-11-20T16:18:54;9.00;99.90
2873;DHT22;1444;49.166;7.312;2022-11-20T16:21:21;8.90;99.90
2873;DHT22;1444;49.166;7.312;2022-11-20T16:23:54;9.00;99.90
2873;DHT22;1444;49.166;7.312;2022-11-20T16:26:20;9.00;99.90
2873;DHT22;1444;49.166;7.312;2022-11-20T16:31:16;8.90;99.90
2873;DHT22;1444;49.166;7.312;2022-11-20T16:33:49;8.90;99.90
2873;DHT22;1444;49.166;7.312;2022-11-20T16:36:17;8.80;99.90
2873;DHT22;1444;49.166;7.312;2022-11-20T16:38:44;8.80;99.90
2873;DHT22;1444;49.166;7.312;2022-11-20T16:41:12;8.70;99.90
2873;DHT22;1444;49.166;7.312;2022-11-20T16:43:44;8.70;99.90
2873;DHT22;1444;49.166;7.312;2022-11-20T16:46:12;8.60;99.90
2873;DHT22;1444;49.166;7.312;2022-11-20T16:48:39;8.50;99.90
2873;DHT22;1444;49.166;7.312;2022-11-20T16:51:09;8.40;99.90
2873;DHT22;1444;49.166;7.312;2022-11-20T16:53:36;8.40;99.90
2873;DHT22;1444;49.166;7.312;2022-11-20T16:56:11;8.20;99.90
2873;DHT22;1444;49.166;7.312;2022-11-20T16:58:40;8.30;99.90
2873;DHT22;1444;49.166;7.312;2022-11-20T17:01:07;8.40;99.90
2873;DHT22;1444;49.166;7.312;2022-11-20T17:03:35;8.40;99.90
2873;DHT22;1444;49.166;7.312;2022-11-20T17:06:11;8.30;99.90
2873;DHT22;1444;49.166;7.312;2022-11-20T17:08:38;8.20;99.90
2873;DHT22;1444;49.166;7.312;2022-11-20T17:11:05;8.20;99.90
2873;DHT22;1444;49.166;7.312;2022-11-20T17:13:33;8.20;99.90
2873;DHT22;1444;49.166;7.312;2022-11-20T17:16:01;8.20;99.90
2873;DHT22;1444;49.166;7.312;2022-11-20T17:18:28;8.10;99.90
2873;DHT22;1444;49.166;7.312;2022-11-20T17:20:55;8.10;99.90
2873;DHT22;1444;49.166;7.312;2022-11-20T17:23:22;8.10;99.90
2873;DHT22;1444;49.166;7.312;2022-11-20T17:25:49;8.10;99.90
2873;DHT22;1444;49.166;7.312;2022-11-20T17:28:15;8.00;99.90
2873;DHT22;1444;49.166;7.312;2022-11-20T17:30:43;8.10;99.90
2873;DHT22;1444;49.166;7.312;2022-11-20T17:33:10;8.10;99.90
2873;DHT22;1444;49.166;7.312;2022-11-20T17:35:37;8.10;99.90
2873;DHT22;1444;49.166;7.312;2022-11-20T17:38:04;8.10;99.90
2873;DHT22;1444;49.166;7.312;2022-11-20T17:40:30;7.90;99.90
2873;DHT22;1444;49.166;7.312;2022-11-20T17:42:57;8.00;99.90
2873;DHT22;1444;49.166;7.312;2022-11-20T17:45:24;7.70;99.90
2873;DHT22;1444;49.166;7.312;2022-11-20T17:47:52;7.50;99.90
2873;DHT22;1444;49.166;7.312;2022-11-20T17:50:19;7.30;99.90
2873;DHT22;1444;49.166;7.312;2022-11-20T17:52:45;7.30;99.90
2873;DHT22;1444;49.166;7.312;2022-11-20T17:55:12;7.30;99.90
2873;DHT22;1444;49.166;7.312;2022-11-20T17:57:39;7.40;99.90
2873;DHT22;1444;49.166;7.312;2022-11-20T18:00:17;7.40;99.90
2873;DHT22;1444;49.166;7.312;2022-11-20T18:02:44;7.20;99.90
2873;DHT22;1444;49.166;7.312;2022-11-20T18:05:13;7.40;99.90
2873;DHT22;1444;49.166;7.312;2022-11-20T18:07:40;7.30;99.90
2873;DHT22;1444;49.166;7.312;2022-11-20T18:10:08;7.30;99.90
2873;DHT22;1444;49.166;7.312;2022-11-20T18:12:35;7.40;99.90
2873;DHT22;1444;49.166;7.312;2022-11-20T18:15:02;7.30;99.90
2873;DHT22;1444;49.166;7.312;2022-11-20T18:17:29;7.40;99.90
2873;DHT22;1444;49.166;7.312;2022-11-20T18:19:56;7.30;99.90
2873;DHT22;1444;49.166;7.312;2022-11-20T18:22:24;7.30;99.90
2873;DHT22;1444;49.166;7.312;2022-11-20T18:24:50;7.40;99.90
2873;DHT22;1444;49.166;7.312;2022-11-20T18:27:19;7.30;99.90
2873;DHT22;1444;49.166;7.312;2022-11-20T18:29:46;7.40;99.90
2873;DHT22;1444;49.166;7.312;2022-11-20T18:32:16;7.50;99.90
2873;DHT22;1444;49.166;7.312;2022-11-20T18:34:43;7.60;99.90
2873;DHT22;1444;49.166;7.312;2022-11-20T18:37:10;7.50;99.90
2873;DHT22;1444;49.166;7.312;2022-11-20T18:39:41;7.50;99.90
2873;DHT22;1444;49.166;7.312;2022-11-20T18:42:10;7.60;99.90
2873;DHT22;1444;49.166;7.312;2022-11-20T18:44:55;7.70;99.90
2873;DHT22;1444;49.166;7.312;2022-11-20T18:49:55;7.60;99.90
2873;DHT22;1444;49.166;7.312;2022-11-20T18:52:24;7.70;99.90
2873;DHT22;1444;49.166;7.312;2022-11-20T18:54:53;7.80;99.90
2873;DHT22;1444;49.166;7.312;2022-11-20T18:57:22;7.80;99.90
2873;DHT22;1444;49.166;7.312;2022-11-20T18:59:49;7.90;99.90
2873;DHT22;1444;49.166;7.312;2022-11-20T19:02:17;7.90;99.90
2873;DHT22;1444;49.166;7.312;2022-11-20T19:04:44;7.90;99.90
2873;DHT22;1444;49.166;7.312;2022-11-20T19:07:11;7.90;99.90
2873;DHT22;1444;49.166;7.312;2022-11-20T19:09:38;7.90;99.90
2873;DHT22;1444;49.166;7.312;2022-11-20T19:12:08;7.90;99.90
2873;DHT22;1444;49.166;7.312;2022-11-20T19:14:35;7.90;99.90
2873;DHT22;1444;49.166;7.312;2022-11-20T19:17:02;7.90;99.90
2873;DHT22;1444;49.166;7.312;2022-11-20T19:19:30;8.00;99.90
2873;DHT22;1444;49.166;7.312;2022-11-20T19:21:57;8.00;99.90
2873;DHT22;1444;49.166;7.312;2022-11-20T19:24:24;8.00;99.90
2873;DHT22;1444;49.166;7.312;2022-11-20T19:26:52;8.00;99.90
2873;DHT22;1444;49.166;7.312;2022-11-20T19:29:21;7.90;99.90
2873;DHT22;1444;49.166;7.312;2022-11-20T19:31:48;8.20;99.90
2873;DHT22;1444;49.166;7.312;2022-11-20T19:34:15;8.00;99.90
2873;DHT22;1444;49.166;7.312;2022-11-20T19:36:42;7.90;99.90
2873;DHT22;1444;49.166;7.312;2022-11-20T19:39:09;8.00;99.90
2873;DHT22;1444;49.166;7.312;2022-11-20T19:41:38;7.90;99.90
2873;DHT22;1444;49.166;7.312;2022-11-20T19:44:06;8.00;99.90
2873;DHT22;1444;49.166;7.312;2022-11-20T19:46:36;8.00;99.90
2873;DHT22;1444;49.166;7.312;2022-11-20T19:49:04;8.00;99.90
2873;DHT22;1444;49.166;7.312;2022-11-20T19:54:00;8.00;99.90
2873;DHT22;1444;49.166;7.312;2022-11-20T19:56:29;8.00;99.90
2873;DHT22;1444;49.166;7.312;2022-11-20T19:58:56;8.10;99.90
2873;DHT22;1444;49.166;7.312;2022-11-20T20:01:24;8.10;99.90
2873;DHT22;1444;49.166;7.312;2022-11-20T20:03:53;8.20;99.90
2873;DHT22;1444;49.166;7.312;2022-11-20T20:06:23;8.20;99.90
2873;DHT22;1444;49.166;7.312;2022-11-20T20:08:54;8.20;99.90